Aviation Digital Data Service (ADDS)

Output produced by METARs form (1840 UTC 18 April 2019)
found at http://www.aviationweather.gov/metar/data/
 
METAR text: KBYH 181750Z 19009KT 10SM -RA SCT008 BKN080 OVC100 18/16 A2972
Conditions at: KBYH (BLYTHEVILLE , AR, US) observed 1750 UTC 18 April 2019
Temperature: 18.0°C (64°F)
Dewpoint: 16.0°C (61°F) [RH = 88%]
Pressure (altimeter): 29.72 inches Hg (1006.5 mb)
Winds: from the S (190 degrees) at 10 MPH (9 knots; 4.6 m/s)
Visibility: 10 or more miles (16+ km)
Ceiling: 8000 feet AGL
Clouds: scattered clouds at 800 feet AGL
broken clouds at 8000 feet AGL
overcast cloud deck at 10000 feet AGL
Weather: -RA  (light rain)

METAR text: KBYH 181654Z 16005KT 9SM -RA SCT070 BKN090 OVC110 18/17 A2974
Conditions at: KBYH (BLYTHEVILLE , AR, US) observed 1654 UTC 18 April 2019
Temperature: 18.0°C (64°F)
Dewpoint: 17.0°C (63°F) [RH = 94%]
Pressure (altimeter): 29.74 inches Hg (1007.2 mb)
Winds: from the SSE (160 degrees) at 6 MPH (5 knots; 2.6 m/s)
Visibility: 9 miles (14 km)
Ceiling: 9000 feet AGL
Clouds: scattered clouds at 7000 feet AGL
broken clouds at 9000 feet AGL
overcast cloud deck at 11000 feet AGL
Weather: -RA  (light rain)

METAR text: KBYH 181550Z 16005KT 10SM SCT005 BKN085 OVC150 18/17 A2975
Conditions at: KBYH (BLYTHEVILLE , AR, US) observed 1550 UTC 18 April 2019
Temperature: 18.0°C (64°F)
Dewpoint: 17.0°C (63°F) [RH = 94%]
Pressure (altimeter): 29.75 inches Hg (1007.5 mb)
Winds: from the SSE (160 degrees) at 6 MPH (5 knots; 2.6 m/s)
Visibility: 10 or more miles (16+ km)
Ceiling: 8500 feet AGL
Clouds: scattered clouds at 500 feet AGL
broken clouds at 8500 feet AGL
overcast cloud deck at 15000 feet AGL
Weather: no significant weather observed at this time

METAR text: KBYH 181450Z 06004KT 8SM -RA SCT008 BKN042 OVC100 16/16 A2975
Conditions at: KBYH (BLYTHEVILLE , AR, US) observed 1450 UTC 18 April 2019
Temperature: 16.0°C (61°F)
Dewpoint: 16.0°C (61°F) [RH = 100%]
Pressure (altimeter): 29.75 inches Hg (1007.5 mb)
Winds: from the ENE (60 degrees) at 5 MPH (4 knots; 2.1 m/s)
Visibility: 8 miles (13 km)
Ceiling: 4200 feet AGL
Clouds: scattered clouds at 800 feet AGL
broken clouds at 4200 feet AGL
overcast cloud deck at 10000 feet AGL
Weather: -RA  (light rain)

METAR text: KBYH 181350Z 23006KT 1 1/2SM RABR SCT002 BKN020 OVC035 16/15 A2980 RMK TSE/45 TS MOV NE
Conditions at: KBYH (BLYTHEVILLE , AR, US) observed 1350 UTC 18 April 2019
Temperature: 16.0°C (61°F)
Dewpoint: 15.0°C (59°F) [RH = 94%]
Pressure (altimeter): 29.80 inches Hg (1009.2 mb)
Winds: from the SW (230 degrees) at 7 MPH (6 knots; 3.1 m/s)
Visibility: 1.50 miles (2.41 km)
Ceiling: 2000 feet AGL
Clouds: scattered clouds at 200 feet AGL
broken clouds at 2000 feet AGL
overcast cloud deck at 3500 feet AGL
Weather: RA BR  (moderate rain, mist)

METAR text: KBYH 181250Z 15007KT 2SM TSRABR SCT009 BKN031 OVC047 16/15 A2978 RMK OCNL LTG ICCCCACG ALQDS TSB/30 TS OHD MOV NE
Conditions at: KBYH (BLYTHEVILLE , AR, US) observed 1250 UTC 18 April 2019
Temperature: 16.0°C (61°F)
Dewpoint: 15.0°C (59°F) [RH = 94%]
Pressure (altimeter): 29.78 inches Hg (1008.5 mb)
Winds: from the SSE (150 degrees) at 8 MPH (7 knots; 3.6 m/s)
Visibility: 2.00 miles (3.22 km)
Ceiling: 3100 feet AGL
Clouds: scattered clouds at 900 feet AGL
broken clouds at 3100 feet AGL
overcast cloud deck at 4700 feet AGL
Weather: TSRA BR  (rain associated with thunderstorm(s), mist)

METAR text: KBYH 172150Z 21016G23KT 10SM BKN038 23/16 A2986 RMK LAST
Conditions at: KBYH (BLYTHEVILLE , AR, US) observed 2150 UTC 17 April 2019
Temperature: 23.0°C (73°F)
Dewpoint: 16.0°C (61°F) [RH = 65%]
Pressure (altimeter): 29.86 inches Hg (1011.3 mb)
Winds: from the SSW (210 degrees) at 18 MPH (16 knots; 8.2 m/s)
gusting to 26 MPH (23 knots; 11.8 m/s)
Visibility: 10 or more miles (16+ km)
Ceiling: 3800 feet AGL
Clouds: broken clouds at 3800 feet AGL
Weather: no significant weather observed at this time

METAR text: KBYH 172059Z 21016G24KT 10SM BKN042 24/17 A2986
Conditions at: KBYH (BLYTHEVILLE , AR, US) observed 2059 UTC 17 April 2019
Temperature: 24.0°C (75°F)
Dewpoint: 17.0°C (63°F) [RH = 65%]
Pressure (altimeter): 29.86 inches Hg (1011.3 mb)
Winds: from the SSW (210 degrees) at 18 MPH (16 knots; 8.2 m/s)
gusting to 28 MPH (24 knots; 12.3 m/s)
Visibility: 10 or more miles (16+ km)
Ceiling: 4200 feet AGL
Clouds: broken clouds at 4200 feet AGL
Weather: no significant weather observed at this time

METAR text: KBYH 171850Z 20014G24KT 10SM SCT024 BN065 BKN150 24/17 A2992
Conditions at: KBYH (BLYTHEVILLE , AR, US) observed 1850 UTC 17 April 2019
Temperature: 24.0°C (75°F)
Dewpoint: 17.0°C (63°F) [RH = 65%]
Pressure (altimeter): 29.92 inches Hg (1013.3 mb)
Winds: from the SSW (200 degrees) at 16 MPH (14 knots; 7.2 m/s)
gusting to 28 MPH (24 knots; 12.3 m/s)
Visibility: 10 or more miles (16+ km)
Ceiling: 15000 feet AGL
Clouds: scattered clouds at 2400 feet AGL
broken clouds at 15000 feet AGL
Weather: no significant weather observed at this time

METAR text: KBYH 171759Z 21017G24KT 10SM SCT022 BN070 BKN150 22/16 A2995
Conditions at: KBYH (BLYTHEVILLE , AR, US) observed 1759 UTC 17 April 2019
Temperature: 22.0°C (72°F)
Dewpoint: 16.0°C (61°F) [RH = 69%]
Pressure (altimeter): 29.95 inches Hg (1014.3 mb)
Winds: from the SSW (210 degrees) at 20 MPH (17 knots; 8.7 m/s)
gusting to 28 MPH (24 knots; 12.3 m/s)
Visibility: 10 or more miles (16+ km)
Ceiling: 15000 feet AGL
Clouds: scattered clouds at 2200 feet AGL
broken clouds at 15000 feet AGL
Weather: no significant weather observed at this time

METAR text: KBYH 171650Z 20014G27KT 10SM BKN020 BKN150 OVC250 21/16 A2997
Conditions at: KBYH (BLYTHEVILLE , AR, US) observed 1650 UTC 17 April 2019
Temperature: 21.0°C (70°F)
Dewpoint: 16.0°C (61°F) [RH = 73%]
Pressure (altimeter): 29.97 inches Hg (1015.0 mb)
Winds: from the SSW (200 degrees) at 16 MPH (14 knots; 7.2 m/s)
gusting to 31 MPH (27 knots; 13.9 m/s)
Visibility: 10 or more miles (16+ km)
Ceiling: 2000 feet AGL
Clouds: broken clouds at 2000 feet AGL
broken clouds at 15000 feet AGL
overcast cloud deck at 25000 feet AGL
Weather: no significant weather observed at this time

METAR text: KBYH 171552Z 21016G26KT 10SM FEW080 OVC250 21/15 A2998
Conditions at: KBYH (BLYTHEVILLE , AR, US) observed 1552 UTC 17 April 2019
Temperature: 21.0°C (70°F)
Dewpoint: 15.0°C (59°F) [RH = 69%]
Pressure (altimeter): 29.98 inches Hg (1015.3 mb)
Winds: from the SSW (210 degrees) at 18 MPH (16 knots; 8.2 m/s)
gusting to 30 MPH (26 knots; 13.4 m/s)
Visibility: 10 or more miles (16+ km)
Ceiling: 25000 feet AGL
Clouds: few clouds at 8000 feet AGL
overcast cloud deck at 25000 feet AGL
Weather: no significant weather observed at this time

METAR text: KBYH 171456Z 21016G23KT 10SM BKN150 OVC250 20/14 A2999
Conditions at: KBYH (BLYTHEVILLE , AR, US) observed 1456 UTC 17 April 2019
Temperature: 20.0°C (68°F)
Dewpoint: 14.0°C (57°F) [RH = 68%]
Pressure (altimeter): 29.99 inches Hg (1015.7 mb)
Winds: from the SSW (210 degrees) at 18 MPH (16 knots; 8.2 m/s)
gusting to 26 MPH (23 knots; 11.8 m/s)
Visibility: 10 or more miles (16+ km)
Ceiling: 15000 feet AGL
Clouds: broken clouds at 15000 feet AGL
overcast cloud deck at 25000 feet AGL
Weather: no significant weather observed at this time

METAR text: KBYH 171350Z 18012G20KT 10SM FEW090 BKN150 OVC250 19/14 A2998
Conditions at: KBYH (BLYTHEVILLE , AR, US) observed 1350 UTC 17 April 2019
Temperature: 19.0°C (66°F)
Dewpoint: 14.0°C (57°F) [RH = 73%]
Pressure (altimeter): 29.98 inches Hg (1015.3 mb)
Winds: from the S (180 degrees) at 14 MPH (12 knots; 6.2 m/s)
gusting to 23 MPH (20 knots; 10.3 m/s)
Visibility: 10 or more miles (16+ km)
Ceiling: 15000 feet AGL
Clouds: few clouds at 9000 feet AGL
broken clouds at 15000 feet AGL
overcast cloud deck at 25000 feet AGL
Weather: no significant weather observed at this time

METAR text: KBYH 171250Z 20010KT 10SM SCT090 BKN150 OVC250 18/13 A3000
Conditions at: KBYH (BLYTHEVILLE , AR, US) observed 1250 UTC 17 April 2019
Temperature: 18.0°C (64°F)
Dewpoint: 13.0°C (55°F) [RH = 73%]
Pressure (altimeter): 30.00 inches Hg (1016.0 mb)
Winds: from the SSW (200 degrees) at 12 MPH (10 knots; 5.1 m/s)
Visibility: 10 or more miles (16+ km)
Ceiling: 15000 feet AGL
Clouds: scattered clouds at 9000 feet AGL
broken clouds at 15000 feet AGL
overcast cloud deck at 25000 feet AGL
Weather: no significant weather observed at this time